createdAt,value
2023-03-10T00:00:38.003Z,98847.06
2023-03-10T00:04:23.073Z,98835.42
2023-03-10T00:07:51.204Z,98826.52
2023-03-10T00:11:18.922Z,98816.06
2023-03-10T00:14:46.151Z,98817.61
2023-03-10T00:18:13.150Z,98815.42
2023-03-10T00:21:40.191Z,98811.00
2023-03-10T00:25:09.193Z,98806.59
2023-03-10T00:28:36.201Z,98800.79
2023-03-10T00:32:03.813Z,98798.23
2023-03-10T00:35:30.877Z,98793.30
2023-03-10T00:39:03.838Z,98786.15
2023-03-10T00:42:30.866Z,98777.94
2023-03-10T00:45:58.305Z,98774.17
2023-03-10T00:49:25.546Z,98762.50
2023-03-10T00:52:52.913Z,98756.64
2023-03-10T00:56:22.262Z,98753.52
2023-03-10T00:59:53.556Z,98741.83
2023-03-10T01:03:20.903Z,98733.38
2023-03-10T01:06:47.971Z,98729.90
2023-03-10T01:10:15.794Z,98723.93
2023-03-10T01:13:43.231Z,98731.19
2023-03-10T01:17:10.567Z,98727.61
2023-03-10T01:20:38.022Z,98720.45
2023-03-10T01:24:06.569Z,98713.65
2023-03-10T01:27:33.571Z,98701.38
2023-03-10T01:31:00.625Z,98684.43
2023-03-10T01:34:27.912Z,98676.05
2023-03-10T01:37:54.941Z,98678.81
2023-03-10T01:41:23.485Z,98686.00
2023-03-10T01:45:10.455Z,98687.04
2023-03-10T01:48:38.767Z,98679.14
2023-03-10T01:52:11.685Z,98673.59
2023-03-10T01:55:43.481Z,98669.83
2023-03-10T01:59:11.497Z,98659.23
2023-03-10T02:02:41.677Z,98647.42
2023-03-10T02:06:12.927Z,98636.52
2023-03-10T02:09:44.572Z,98638.42
2023-03-10T02:13:11.615Z,98625.44
2023-03-10T02:16:38.810Z,98608.45
2023-03-10T02:20:28.583Z,98605.73
2023-03-10T02:24:05.091Z,98595.50
2023-03-10T02:27:36.628Z,98587.11
2023-03-10T02:31:04.955Z,98584.38
2023-03-10T02:34:34.704Z,98580.24
2023-03-10T02:38:02.145Z,98563.45
2023-03-10T02:41:32.918Z,98556.45
2023-03-10T02:45:00.609Z,98546.86
2023-03-10T02:48:30.983Z,98538.98
2023-03-10T02:52:00.108Z,98533.03
2023-03-10T02:55:27.498Z,98524.48
2023-03-10T02:58:55.076Z,98519.88
2023-03-10T03:02:22.257Z,98504.61
2023-03-10T03:05:50.212Z,98499.25
2023-03-10T03:09:17.701Z,98488.43
2023-03-10T03:12:45.860Z,98483.29
2023-03-10T03:16:13.658Z,98471.63
2023-03-10T03:19:42.006Z,98460.86
2023-03-10T03:23:09.866Z,98450.96
2023-03-10T03:26:37.674Z,98444.81
2023-03-10T03:30:16.069Z,98438.84
2023-03-10T03:33:43.397Z,98428.90
2023-03-10T03:37:11.071Z,98428.25
2023-03-10T03:40:39.974Z,98426.00
2023-03-10T03:44:08.534Z,98420.31
2023-03-10T03:47:36.130Z,98416.02
2023-03-10T03:51:03.728Z,98411.06
2023-03-10T03:54:36.455Z,98398.73
2023-03-10T03:58:03.776Z,98397.55
2023-03-10T04:01:30.926Z,98393.30
2023-03-10T04:04:58.571Z,98383.05
2023-03-10T04:08:26.131Z,98375.05
2023-03-10T04:11:54.234Z,98367.20
2023-03-10T04:15:22.435Z,98354.92
2023-03-10T04:18:50.004Z,98346.40
2023-03-10T04:22:17.343Z,98350.41
2023-03-10T04:25:45.692Z,98339.48
2023-03-10T04:29:13.639Z,98327.53
2023-03-10T04:32:41.335Z,98323.30
2023-03-10T04:36:10.458Z,98316.33
2023-03-10T04:39:38.768Z,98316.02
2023-03-10T04:43:06.832Z,98311.81
2023-03-10T04:46:34.642Z,98304.64
2023-03-10T04:50:02.204Z,98295.94
2023-03-10T04:53:32.583Z,98289.11
2023-03-10T04:56:58.448Z,98284.30
2023-03-10T05:00:26.593Z,98281.24
2023-03-10T05:03:53.996Z,98274.57
2023-03-10T05:07:21.517Z,98268.91
2023-03-10T05:10:50.589Z,98255.86
2023-03-10T05:14:18.981Z,98249.86
2023-03-10T05:17:48.237Z,98245.10
2023-03-10T05:21:18.452Z,98241.70
2023-03-10T05:24:46.095Z,98235.08
2023-03-10T05:28:13.870Z,98234.41
2023-03-10T05:31:42.592Z,98227.59
2023-03-10T05:35:14.441Z,98216.67
2023-03-10T05:38:42.476Z,98214.48
2023-03-10T05:42:12.552Z,98206.63
2023-03-10T05:45:41.012Z,98214.27
2023-03-10T05:49:08.457Z,98205.91
2023-03-10T05:52:40.033Z,98203.24
2023-03-10T05:56:13.601Z,98198.02
2023-03-10T05:59:42.036Z,98202.94
2023-03-10T06:03:09.828Z,98192.20
2023-03-10T06:06:37.265Z,98183.19
2023-03-10T06:10:05.731Z,98178.31
2023-03-10T06:13:33.432Z,98170.34
2023-03-10T06:17:00.983Z,98164.43
2023-03-10T06:20:28.324Z,98161.96
2023-03-10T06:23:55.518Z,98159.98
2023-03-10T06:27:22.932Z,98155.27
2023-03-10T06:30:57.033Z,98152.45
2023-03-10T06:34:24.232Z,98147.06
2023-03-10T06:37:51.465Z,98141.31
2023-03-10T06:41:18.853Z,98139.54
2023-03-10T06:44:48.751Z,98141.69
2023-03-10T06:48:16.976Z,98134.88
2023-03-10T06:51:47.209Z,98135.81
2023-03-10T06:55:16.114Z,98130.52
2023-03-10T06:58:44.733Z,98129.57
2023-03-10T07:02:13.588Z,98126.20
2023-03-10T07:05:40.877Z,98123.17
2023-03-10T07:09:08.488Z,98118.09
2023-03-10T07:12:35.675Z,98116.27
2023-03-10T07:16:02.812Z,98111.20
2023-03-10T07:19:29.799Z,98106.47
2023-03-10T07:22:56.782Z,98102.27
2023-03-10T07:26:24.056Z,98097.35
2023-03-10T07:29:51.241Z,98090.02
2023-03-10T07:33:19.173Z,98081.96
2023-03-10T07:36:46.240Z,98085.63
2023-03-10T07:40:14.835Z,98086.20
2023-03-10T07:43:42.313Z,98087.99
2023-03-10T07:47:09.725Z,98089.27
2023-03-10T07:50:36.755Z,98088.96
2023-03-10T07:54:03.792Z,98087.44
2023-03-10T07:57:30.816Z,98084.34
2023-03-10T08:00:58.979Z,98090.05
2023-03-10T08:04:26.894Z,98085.37
2023-03-10T08:07:54.287Z,98082.26
2023-03-10T08:11:22.321Z,98082.43
2023-03-10T08:14:51.206Z,98079.64
2023-03-10T08:18:18.267Z,98081.86
2023-03-10T08:21:46.423Z,98080.94
2023-03-10T08:25:13.825Z,98082.13
2023-03-10T08:28:41.143Z,98086.88
2023-03-10T08:32:09.525Z,98080.16
2023-03-10T08:35:37.327Z,98080.05
2023-03-10T08:39:05.894Z,98078.52
2023-03-10T08:42:33.776Z,98071.36
2023-03-10T08:46:00.909Z,98069.25
2023-03-10T08:49:28.119Z,98076.66
2023-03-10T08:52:55.601Z,98071.80
2023-03-10T08:56:24.288Z,98069.72
2023-03-10T08:59:51.835Z,98066.02
2023-03-10T09:03:18.950Z,98068.36
2023-03-10T09:06:46.373Z,98066.91
2023-03-10T09:10:13.913Z,98067.48
2023-03-10T09:13:41.088Z,98062.31
2023-03-10T09:17:09.664Z,98059.66
2023-03-10T09:20:39.856Z,98057.16
2023-03-10T09:24:07.706Z,98056.65
2023-03-10T09:27:34.889Z,98063.15
2023-03-10T09:31:02.032Z,98062.02
2023-03-10T09:34:30.078Z,98060.30
2023-03-10T09:37:57.101Z,98062.19
2023-03-10T09:41:46.971Z,98061.13
2023-03-10T09:45:26.374Z,98060.13
2023-03-10T09:49:05.848Z,98057.98
2023-03-10T09:52:45.320Z,98055.67
2023-03-10T09:56:17.848Z,98049.98
2023-03-10T09:59:48.152Z,98049.92
2023-03-10T10:03:21.156Z,98052.67
2023-03-10T10:06:51.054Z,98049.90
2023-03-10T10:10:23.256Z,98043.85
2023-03-10T10:13:51.496Z,98044.14
2023-03-10T10:17:26.488Z,98040.56
2023-03-10T10:21:00.490Z,98045.22
2023-03-10T10:24:27.690Z,98050.34
2023-03-10T10:27:58.107Z,98045.48
2023-03-10T10:31:28.487Z,98045.09
2023-03-10T10:35:16.341Z,98039.55
2023-03-10T10:38:52.084Z,98033.36
2023-03-10T10:42:24.257Z,98026.27
2023-03-10T10:45:56.258Z,98022.43
2023-03-10T10:49:26.704Z,98020.50
2023-03-10T10:53:14.591Z,98022.27
2023-03-10T10:56:54.855Z,98020.27
2023-03-10T11:00:29.662Z,98029.66
2023-03-10T11:04:08.064Z,98033.33
2023-03-10T11:07:35.153Z,98027.98
2023-03-10T11:11:09.048Z,98024.88
2023-03-10T11:14:45.299Z,98023.55
2023-03-10T11:18:18.538Z,98018.49
2023-03-10T11:21:50.571Z,98019.05
2023-03-10T11:25:26.978Z,98017.34
2023-03-10T11:28:57.986Z,98017.20
2023-03-10T11:32:34.964Z,98017.54
2023-03-10T11:36:14.832Z,98013.77
2023-03-10T11:39:55.210Z,98004.20
2023-03-10T11:43:33.640Z,98003.96
2023-03-10T11:47:07.422Z,98000.18
2023-03-10T11:50:43.522Z,97999.38
2023-03-10T11:54:19.808Z,98001.21
2023-03-10T11:57:50.028Z,98005.19
2023-03-10T12:01:20.619Z,98004.21
2023-03-10T12:04:52.681Z,98007.42
2023-03-10T12:08:22.186Z,97997.61
2023-03-10T12:11:49.244Z,97999.98
2023-03-10T12:15:24.514Z,97993.23
2023-03-10T12:18:51.887Z,97989.09
2023-03-10T12:22:37.296Z,97991.76
2023-03-10T12:26:04.416Z,97991.45
2023-03-10T12:29:43.692Z,97988.45
2023-03-10T12:33:52.408Z,97987.39
2023-03-10T12:37:25.338Z,97983.30
2023-03-10T12:40:53.310Z,97987.02
2023-03-10T12:44:58.495Z,97991.66
2023-03-10T12:48:26.105Z,98000.98
2023-03-10T12:51:59.921Z,98002.88
2023-03-10T12:55:28.180Z,97995.67
2023-03-10T12:59:05.204Z,97999.13
2023-03-10T13:02:44.895Z,97995.27
2023-03-10T13:06:24.408Z,98000.35
2023-03-10T13:09:54.062Z,98000.68
2023-03-10T13:13:21.254Z,97997.57
2023-03-10T13:16:57.161Z,98000.02
2023-03-10T13:20:25.505Z,97997.92
2023-03-10T13:23:52.739Z,97999.61
2023-03-10T13:27:24.035Z,97992.65
2023-03-10T13:30:52.403Z,97990.38
2023-03-10T13:34:22.860Z,97991.00
2023-03-10T13:38:06.558Z,97990.41
2023-03-10T13:41:37.475Z,97989.20
2023-03-10T13:45:14.524Z,97994.92
2023-03-10T13:48:42.478Z,97995.94
2023-03-10T13:52:16.095Z,97994.39
2023-03-10T13:55:43.448Z,97997.93
2023-03-10T13:59:17.092Z,97995.19
2023-03-10T14:02:45.998Z,98001.32
2023-03-10T14:06:17.084Z,98006.52
2023-03-10T14:09:44.200Z,98003.91
2023-03-10T14:13:44.702Z,98000.91
2023-03-10T14:17:30.666Z,98000.58
2023-03-10T14:20:57.722Z,97998.38
2023-03-10T14:24:27.303Z,98000.86
2023-03-10T14:27:58.250Z,98009.81
2023-03-10T14:31:26.774Z,98001.45
2023-03-10T14:34:54.030Z,98002.88
2023-03-10T14:38:21.223Z,97998.97
2023-03-10T14:41:48.636Z,97997.77
2023-03-10T14:45:27.532Z,97994.02
2023-03-10T14:48:54.742Z,97990.47
2023-03-10T14:52:21.859Z,97978.66
2023-03-10T14:55:51.815Z,97970.78
2023-03-10T14:59:19.742Z,97971.09
2023-03-10T15:02:47.934Z,97970.23
2023-03-10T15:06:18.544Z,97965.83
2023-03-10T15:09:46.648Z,97967.05
2023-03-10T15:13:15.072Z,97968.44
2023-03-10T15:16:42.832Z,97964.30
2023-03-10T15:20:16.440Z,97959.64
2023-03-10T15:23:43.943Z,97957.90
2023-03-10T15:27:13.603Z,97960.27
2023-03-10T15:30:41.079Z,97958.53
2023-03-10T15:34:08.243Z,97955.02
2023-03-10T15:37:35.379Z,97954.68
2023-03-10T15:41:05.863Z,97962.90
2023-03-10T15:44:32.982Z,97959.27
2023-03-10T15:48:00.455Z,97957.38
2023-03-10T15:51:27.767Z,97951.98
2023-03-10T15:54:54.989Z,97955.23
2023-03-10T15:58:22.248Z,97954.85
2023-03-10T16:01:49.557Z,97954.62
2023-03-10T16:05:17.423Z,97958.45
2023-03-10T16:08:44.865Z,97960.73
2023-03-10T16:12:12.126Z,97953.02
2023-03-10T16:15:41.727Z,97960.11
2023-03-10T16:19:08.728Z,97956.52
2023-03-10T16:22:40.645Z,97957.61
2023-03-10T16:26:10.488Z,97957.14
2023-03-10T16:29:35.961Z,97961.41
2023-03-10T16:33:02.980Z,97969.67
2023-03-10T16:36:30.683Z,97979.23
2023-03-10T16:39:58.675Z,97981.99
2023-03-10T16:43:28.351Z,97986.52
2023-03-10T16:46:55.370Z,97985.39
2023-03-10T16:50:22.651Z,97991.45
2023-03-10T16:53:50.333Z,97983.80
2023-03-10T16:57:18.108Z,97992.54
2023-03-10T17:00:45.148Z,97992.20
2023-03-10T17:04:12.725Z,97990.86
2023-03-10T17:07:53.270Z,97989.35
2023-03-10T17:11:26.627Z,97987.16
2023-03-10T17:14:56.521Z,97982.48
2023-03-10T17:18:24.700Z,97974.30
2023-03-10T17:21:54.184Z,97975.83
2023-03-10T17:25:22.544Z,97969.50
2023-03-10T17:28:52.440Z,97968.34
2023-03-10T17:32:22.628Z,97968.37
2023-03-10T17:35:50.931Z,97966.29
2023-03-10T17:39:22.301Z,97965.62
2023-03-10T17:42:50.230Z,97956.47
2023-03-10T17:46:20.085Z,97948.70
2023-03-10T17:49:47.976Z,97953.59
2023-03-10T17:53:15.595Z,97947.39
2023-03-10T17:56:42.824Z,97940.30
2023-03-10T18:00:13.436Z,97945.55
2023-03-10T18:03:41.629Z,97939.52
2023-03-10T18:07:09.727Z,97934.54
2023-03-10T18:10:38.399Z,97932.86
2023-03-10T18:14:06.889Z,97922.52
2023-03-10T18:17:34.212Z,97919.41
2023-03-10T18:21:02.234Z,97919.44
2023-03-10T18:24:29.799Z,97922.40
2023-03-10T18:27:57.355Z,97925.52
2023-03-10T18:31:26.769Z,97926.75
2023-03-10T18:34:54.635Z,97921.04
2023-03-10T18:38:22.274Z,97914.47
2023-03-10T18:41:50.077Z,97913.11
2023-03-10T18:45:17.994Z,97914.88
2023-03-10T18:48:45.872Z,97907.45
2023-03-10T18:52:16.063Z,97903.31
2023-03-10T18:55:43.445Z,97899.01
2023-03-10T18:59:11.367Z,97886.72
2023-03-10T19:02:39.226Z,97878.77
2023-03-10T19:06:09.068Z,97877.93
2023-03-10T19:09:36.493Z,97888.16
2023-03-10T19:13:04.682Z,97905.84
2023-03-10T19:16:32.565Z,97909.80
2023-03-10T19:20:01.262Z,97915.50
2023-03-10T19:23:29.792Z,97912.17
2023-03-10T19:26:57.870Z,97918.92
2023-03-10T19:30:26.399Z,97928.42
2023-03-10T19:33:54.297Z,97924.28
2023-03-10T19:37:22.264Z,97915.27
2023-03-10T19:40:50.343Z,97918.89
2023-03-10T19:44:18.127Z,97913.13
2023-03-10T19:47:46.683Z,97903.73
2023-03-10T19:51:22.040Z,97905.64
2023-03-10T19:54:52.190Z,97903.90
2023-03-10T19:58:19.767Z,97900.08
2023-03-10T20:01:49.125Z,97891.73
2023-03-10T20:05:18.251Z,97885.00
2023-03-10T20:08:46.238Z,97880.02
2023-03-10T20:12:14.001Z,97875.41
2023-03-10T20:15:44.142Z,97872.85
2023-03-10T20:19:12.144Z,97863.34
2023-03-10T20:22:41.689Z,97855.05
2023-03-10T20:26:11.245Z,97861.81
2023-03-10T20:29:38.439Z,97860.23
2023-03-10T20:33:05.862Z,97854.67
2023-03-10T20:36:33.427Z,97848.95
2023-03-10T20:40:01.226Z,97843.39
2023-03-10T20:43:28.830Z,97846.04
2023-03-10T20:46:55.880Z,97854.59
2023-03-10T20:50:23.219Z,97859.13
2023-03-10T20:53:52.035Z,97861.75
2023-03-10T20:57:19.108Z,97859.86
2023-03-10T21:00:49.151Z,97857.11
2023-03-10T21:04:16.780Z,97857.65
2023-03-10T21:07:44.391Z,97855.75
2023-03-10T21:11:11.663Z,97848.84
2023-03-10T21:14:39.209Z,97849.05
2023-03-10T21:18:06.413Z,97846.98
2023-03-10T21:21:34.599Z,97848.55
2023-03-10T21:25:01.858Z,97846.31
2023-03-10T21:28:29.032Z,97844.23
2023-03-10T21:31:56.339Z,97844.08
2023-03-10T21:35:23.487Z,97850.67
2023-03-10T21:38:51.698Z,97845.66
2023-03-10T21:42:18.924Z,97840.98
2023-03-10T21:45:45.977Z,97838.55
2023-03-10T21:49:12.999Z,97834.55
2023-03-10T21:52:39.990Z,97837.30
2023-03-10T21:56:08.341Z,97834.00
2023-03-10T21:59:35.532Z,97836.91
2023-03-10T22:03:03.088Z,97834.63
2023-03-10T22:06:30.054Z,97832.52
2023-03-10T22:09:57.203Z,97828.00
2023-03-10T22:13:24.271Z,97824.86
2023-03-10T22:16:51.528Z,97824.67
2023-03-10T22:20:20.859Z,97824.32
2023-03-10T22:23:47.960Z,97821.87
2023-03-10T22:27:15.276Z,97821.87
2023-03-10T22:30:42.649Z,97822.05
2023-03-10T22:34:09.665Z,97821.17
2023-03-10T22:37:36.746Z,97818.42
2023-03-10T22:41:03.720Z,97816.02
2023-03-10T22:44:34.571Z,97812.23
2023-03-10T22:48:03.776Z,97812.40
2023-03-10T22:51:30.802Z,97810.34
2023-03-10T22:54:57.900Z,97806.86
2023-03-10T22:58:25.105Z,97801.66
2023-03-10T23:01:52.456Z,97799.23
2023-03-10T23:05:20.072Z,97794.73
2023-03-10T23:08:48.592Z,97792.14
2023-03-10T23:12:15.770Z,97792.31
2023-03-10T23:15:43.883Z,97789.01
2023-03-10T23:19:11.084Z,97778.95
2023-03-10T23:22:38.057Z,97778.05
2023-03-10T23:26:05.395Z,97780.66
2023-03-10T23:29:32.445Z,97779.63
2023-03-10T23:33:00.123Z,97781.00
2023-03-10T23:36:27.555Z,97777.34
2023-03-10T23:39:54.626Z,97772.81
2023-03-10T23:43:22.211Z,97775.75
2023-03-10T23:46:53.538Z,97774.86
2023-03-10T23:50:23.677Z,97775.36
2023-03-10T23:53:50.807Z,97772.05
2023-03-10T23:57:17.903Z,97770.13
